Time;durP1;ratioP1;P1;durP2;ratioP2;P2;SDS_P1;SDS_P2;PMS_P1;PMS_P2;Temp;Humidity;BMP_temperature;BMP_pressure;BME280_temperature;BME280_humidity;BME280_pressure;Samples;Min_cycle;Max_cycle;Signal;HPM_P1;HPM_P2
2022/10/03 00:01:39;;;;;;;10.95;1.15;;;11.90;99.90;;;;;;4183420;28;20485;-85
2022/10/03 00:03:43;;;;;;;9.48;1.05;;;11.90;99.90;;;;;;4183549;28;20053;-85
2022/10/03 00:06:08;;;;;;;7.93;1.00;;;11.90;99.90;;;;;;4199623;28;20032;-85
2022/10/03 00:08:15;;;;;;;10.90;1.77;;;11.80;99.90;;;;;;4184801;28;20102;-86
2022/10/03 00:10:36;;;;;;;18.80;3.22;;;11.90;99.90;;;;;;4182941;28;20053;-85
2022/10/03 00:12:41;;;;;;;11.57;1.15;;;11.90;99.90;;;;;;4183289;28;20556;-85
2022/10/03 00:15:00;;;;;;;10.02;1.77;;;11.80;99.90;;;;;;4183341;28;20548;-85
2022/10/03 00:17:05;;;;;;;;;;;11.90;99.90;;;;;;4182830;28;20124;-85
2022/10/03 00:19:20;;;;;;;9.93;2.08;;;11.90;99.90;;;;;;4181665;28;19928;-85
2022/10/03 00:22:04;;;;;;;9.15;1.08;;;11.90;99.90;;;;;;4183627;28;20115;-85
2022/10/03 00:24:30;;;;;;;15.95;1.58;;;11.90;99.90;;;;;;4176539;28;20049;-86
2022/10/03 00:26:38;;;;;;;5.03;0.93;;;12.00;99.90;;;;;;4182414;28;20139;-86
2022/10/03 00:28:53;;;;;;;7.30;1.17;;;12.00;99.90;;;;;;4182560;28;20048;-86
2022/10/03 00:31:08;;;;;;;12.35;1.92;;;12.00;99.90;;;;;;4182509;28;20084;-86
2022/10/03 00:33:27;;;;;;;10.05;1.52;;;11.60;99.90;;;;;;4181677;28;20044;-86
2022/10/03 00:35:40;;;;;;;10.45;1.15;;;12.00;99.90;;;;;;4170942;28;20172;-86
2022/10/03 00:38:04;;;;;;;8.35;1.60;;;12.00;99.90;;;;;;4183559;28;20056;-86
2022/10/03 00:40:54;;;;;;;9.05;1.17;;;12.00;99.90;;;;;;4184387;28;20098;-87
2022/10/03 00:43:12;;;;;;;10.23;1.42;;;11.90;99.90;;;;;;4184924;28;20460;-86
2022/10/03 00:45:54;;;;;;;8.13;1.70;;;12.00;99.90;;;;;;4199902;28;20044;-87
2022/10/03 00:48:13;;;;;;;10.45;1.20;;;11.90;99.90;;;;;;4200297;28;20048;-87
2022/10/03 00:51:09;;;;;;;12.52;1.30;;;12.00;99.90;;;;;;4199507;28;20045;-86
2022/10/03 00:53:40;;;;;;;3.75;0.90;;;12.00;99.90;;;;;;4161109;28;20052;-86
2022/10/03 00:56:11;;;;;;;6.97;1.33;;;12.00;99.90;;;;;;4162568;28;20061;-86
2022/10/03 00:58:44;;;;;;;7.63;1.63;;;12.00;99.90;;;;;;4166781;28;20509;-86
2022/10/03 01:00:56;;;;;;;10.18;1.00;;;12.00;99.90;;;;;;4165601;28;20124;-86
2022/10/03 01:02:57;;;;;;;7.03;1.27;;;12.00;99.90;;;;;;4149502;28;20057;-86
2022/10/03 01:05:30;;;;;;;7.80;0.90;;;12.00;99.90;;;;;;4151008;28;20042;-86
2022/10/03 01:07:56;;;;;;;8.52;1.35;;;12.00;99.90;;;;;;4133809;28;20410;-87
2022/10/03 01:10:08;;;;;;;11.48;1.52;;;12.00;99.90;;;;;;4152570;28;20510;-86
2022/10/03 01:12:31;;;;;;;5.13;0.73;;;12.00;99.90;;;;;;4166485;28;20128;-86
2022/10/03 01:14:44;;;;;;;12.88;1.10;;;12.00;99.90;;;;;;4166425;28;20135;-87
2022/10/03 01:17:13;;;;;;;12.95;1.55;;;12.00;99.90;;;;;;4166072;28;20049;-86
2022/10/03 01:19:46;;;;;;;9.45;1.13;;;12.00;99.90;;;;;;4150896;28;20042;-86
2022/10/03 01:22:14;;;;;;;11.50;1.10;;;12.00;99.90;;;;;;4142690;28;20057;-86
2022/10/03 01:24:33;;;;;;;18.10;2.63;;;12.00;99.90;;;;;;4149595;28;20454;-85
2022/10/03 01:26:51;;;;;;;11.45;1.55;;;12.00;99.90;;;;;;4149970;28;20085;-86
2022/10/03 01:31:40;;;;;;;5.07;0.63;;;11.90;99.90;;;;;;4150753;28;20050;-86
2022/10/03 01:33:48;;;;;;;10.45;1.00;;;11.90;99.90;;;;;;4149610;28;20057;-86
2022/10/03 01:35:58;;;;;;;9.93;1.10;;;11.90;99.90;;;;;;4150828;28;20125;-86
2022/10/03 01:38:19;;;;;;;9.07;1.15;;;11.90;99.90;;;;;;4151678;28;20117;-85
2022/10/03 01:40:47;;;;;;;12.93;1.10;;;11.80;99.90;;;;;;4149485;28;20139;-85
2022/10/03 01:43:19;;;;;;;13.40;1.43;;;11.80;99.90;;;;;;4166754;28;20079;-86
2022/10/03 01:45:39;;;;;;;5.15;1.00;;;11.80;99.90;;;;;;4166483;28;20048;-86
2022/10/03 01:47:50;;;;;;;7.82;0.88;;;11.70;99.90;;;;;;4165598;28;20041;-86
2022/10/03 01:50:16;;;;;;;9.63;1.20;;;11.60;99.90;;;;;;4181341;28;20065;-85
2022/10/03 01:52:32;;;;;;;7.47;0.98;;;11.70;99.90;;;;;;4165930;28;20034;-85
2022/10/03 01:55:09;;;;;;;6.90;0.70;;;11.70;99.90;;;;;;4164833;28;20053;-86
2022/10/03 01:57:28;;;;;;;4.70;1.30;;;11.70;99.90;;;;;;4164711;28;20045;-86
2022/10/03 01:59:28;;;;;;;6.22;0.80;;;11.70;99.90;;;;;;4164361;28;20041;-86
2022/10/03 02:01:48;;;;;;;8.43;1.15;;;11.70;99.90;;;;;;4164597;28;20045;-86
2022/10/03 02:04:03;;;;;;;9.10;1.00;;;11.70;99.90;;;;;;4182502;28;20105;-86
2022/10/03 02:06:23;;;;;;;13.10;1.10;;;11.70;99.90;;;;;;4180794;28;20045;-87
2022/10/03 02:08:40;;;;;;;7.85;1.92;;;11.80;99.90;;;;;;4189411;28;20048;-86
2022/10/03 02:10:54;;;;;;;6.28;0.77;;;11.80;99.90;;;;;;4181496;28;20132;-87
2022/10/03 02:13:09;;;;;;;7.00;1.00;;;11.80;99.90;;;;;;4183060;28;20044;-86
2022/10/03 02:15:16;;;;;;;9.02;1.45;;;11.80;99.90;;;;;;4183240;28;20045;-87
2022/10/03 02:17:29;;;;;;;9.55;1.13;;;11.80;99.90;;;;;;4198004;28;20087;-86
2022/10/03 02:19:44;;;;;;;7.75;1.35;;;11.70;99.90;;;;;;4181276;28;20049;-87
2022/10/03 02:21:47;;;;;;;13.43;1.20;;;11.80;99.90;;;;;;4182596;28;20049;-86
2022/10/03 02:24:03;;;;;;;8.07;1.52;;;11.80;99.90;;;;;;4198179;28;20049;-87
2022/10/03 02:26:41;;;;;;;12.93;1.20;;;11.80;99.90;;;;;;4182631;28;20045;-86
2022/10/03 02:28:52;;;;;;;8.55;1.33;;;11.80;99.90;;;;;;4182593;28;20087;-86
2022/10/03 02:31:33;;;;;;;8.93;0.90;;;11.80;99.90;;;;;;4181583;28;20131;-86
2022/10/03 02:34:04;;;;;;;4.38;0.75;;;11.80;99.90;;;;;;4181490;28;20049;-86
2022/10/03 02:36:26;;;;;;;5.05;1.20;;;11.80;99.90;;;;;;4181672;28;20456;-86
2022/10/03 02:39:05;;;;;;;7.63;1.48;;;11.80;99.90;;;;;;4181093;28;20124;-87
2022/10/03 02:41:20;;;;;;;7.05;1.30;;;11.90;99.90;;;;;;4151309;28;20041;-87
2022/10/03 02:44:08;;;;;;;11.82;2.03;;;11.90;99.90;;;;;;4181363;28;20090;-86
2022/10/03 02:46:18;;;;;;;13.95;1.15;;;11.90;99.90;;;;;;4172195;28;20049;-87
2022/10/03 02:48:43;;;;;;;13.05;1.88;;;11.90;99.90;;;;;;4180938;28;20084;-87
2022/10/03 02:50:49;;;;;;;7.00;0.85;;;12.00;99.90;;;;;;4182075;28;20045;-87
2022/10/03 02:53:15;;;;;;;8.57;0.80;;;12.00;99.90;;;;;;4197521;28;20440;-87
2022/10/03 02:55:46;;;;;;;8.32;1.05;;;12.00;99.90;;;;;;4197795;28;20049;-87
2022/10/03 02:58:28;;;;;;;9.02;0.98;;;12.00;99.90;;;;;;4197538;28;20048;-86
2022/10/03 03:00:56;;;;;;;12.85;1.40;;;12.00;99.90;;;;;;4181614;28;20041;-87
2022/10/03 03:03:36;;;;;;;7.20;1.20;;;12.00;99.90;;;;;;4194351;28;20121;-87
2022/10/03 03:06:08;;;;;;;7.30;1.00;;;12.00;99.90;;;;;;4198912;28;20079;-86
2022/10/03 03:08:11;;;;;;;6.07;0.80;;;12.00;99.90;;;;;;4180768;28;20084;-87
2022/10/03 03:10:24;;;;;;;8.18;1.10;;;12.00;99.90;;;;;;4181190;28;20045;-86
2022/10/03 03:12:37;;;;;;;4.45;0.75;;;12.00;99.90;;;;;;4181358;28;20394;-86
2022/10/03 03:14:47;;;;;;;9.32;1.42;;;12.00;99.90;;;;;;4181257;28;20103;-86
2022/10/03 03:17:22;;;;;;;10.13;1.52;;;12.00;99.90;;;;;;4180691;28;20405;-86
2022/10/03 03:19:37;;;;;;;12.38;2.03;;;12.00;99.90;;;;;;4164161;28;20425;-86
2022/10/03 03:21:52;;;;;;;5.63;1.30;;;12.00;99.90;;;;;;4164438;28;20056;-86
2022/10/03 03:23:53;;;;;;;5.10;1.30;;;12.10;99.90;;;;;;4164396;28;20045;-86
2022/10/03 03:26:15;;;;;;;8.18;1.50;;;12.00;99.90;;;;;;4164274;28;20099;-86
2022/10/03 03:28:45;;;;;;;8.35;0.88;;;12.00;99.90;;;;;;4181684;28;20390;-87
2022/10/03 03:31:00;;;;;;;7.10;1.92;;;12.00;99.90;;;;;;4153055;28;20141;-87
2022/10/03 03:33:27;;;;;;;10.15;1.30;;;12.00;99.90;;;;;;4164525;28;20444;-86
2022/10/03 03:35:52;;;;;;;10.90;1.00;;;12.00;99.90;;;;;;4157830;28;20096;-86
2022/10/03 03:37:55;;;;;;;4.18;0.60;;;12.00;99.90;;;;;;4180345;28;20045;-86
2022/10/03 03:40:31;;;;;;;7.65;1.20;;;12.00;99.90;;;;;;4198535;28;20048;-86
2022/10/03 03:42:38;;;;;;;7.25;1.02;;;12.00;99.90;;;;;;4197428;28;20059;-86
2022/10/03 03:44:42;;;;;;;8.60;1.00;;;12.00;99.90;;;;;;4198687;28;20040;-86
2022/10/03 03:46:51;;;;;;;7.13;1.10;;;12.00;99.90;;;;;;4198269;28;20435;-87
2022/10/03 03:49:18;;;;;;;7.00;1.48;;;12.00;99.90;;;;;;4180784;28;20049;-86
2022/10/03 03:51:31;;;;;;;6.22;0.93;;;12.00;99.90;;;;;;4177492;28;20501;-86
2022/10/03 03:54:04;;;;;;;10.02;2.28;;;12.00;99.90;;;;;;4180199;28;20091;-86
2022/10/03 03:56:22;;;;;;;7.63;1.52;;;12.00;99.90;;;;;;4164097;28;20453;-86
2022/10/03 03:58:38;;;;;;;10.73;1.55;;;12.00;99.90;;;;;;4197475;28;20440;-86
2022/10/03 04:01:10;;;;;;;5.15;0.85;;;12.00;99.90;;;;;;4198456;28;20076;-85
2022/10/03 04:03:57;;;;;;;4.38;0.90;;;12.00;99.90;;;;;;4198004;28;20045;-86
2022/10/03 04:06:19;;;;;;;6.57;1.30;;;12.00;99.90;;;;;;4147994;28;20053;-86
2022/10/03 04:08:25;;;;;;;10.90;1.40;;;12.00;99.90;;;;;;4180449;28;20049;-85
2022/10/03 04:10:41;;;;;;;4.85;0.77;;;12.00;99.90;;;;;;4198633;28;20032;-86
2022/10/03 04:13:10;;;;;;;6.03;0.70;;;11.90;99.90;;;;;;4179770;28;20056;-86
2022/10/03 04:15:31;;;;;;;7.68;1.00;;;12.00;99.90;;;;;;4178279;28;20671;-86
2022/10/03 04:20:58;;;;;;;5.65;0.98;;;11.90;99.90;;;;;;4153141;28;20053;-86
2022/10/03 04:23:25;;;;;;;9.55;1.48;;;11.90;99.90;;;;;;4179585;28;20394;-86
2022/10/03 04:25:31;;;;;;;11.65;1.30;;;11.80;99.90;;;;;;4197030;28;20041;-86
2022/10/03 04:27:58;;;;;;;7.97;1.17;;;11.80;99.90;;;;;;4179207;28;20045;-86
2022/10/03 04:30:19;;;;;;;7.93;1.88;;;11.80;99.90;;;;;;4179850;28;20053;-86
2022/10/03 04:32:44;;;;;;;6.60;0.80;;;11.80;99.90;;;;;;4179887;28;20049;-86
2022/10/03 04:35:15;;;;;;;3.75;0.60;;;11.80;99.90;;;;;;4196579;28;20080;-86
2022/10/03 04:37:26;;;;;;;10.65;1.10;;;11.80;99.90;;;;;;4179662;28;20551;-86
2022/10/03 04:39:51;;;;;;;2.88;1.05;;;11.80;99.90;;;;;;4179412;28;20405;-86
2022/10/03 04:42:01;;;;;;;10.48;1.05;;;11.80;99.90;;;;;;4197861;28;20495;-86
2022/10/03 04:44:11;;;;;;;6.25;0.80;;;11.90;99.90;;;;;;4183162;28;20049;-87
2022/10/03 04:46:46;;;;;;;8.15;1.27;;;11.90;99.90;;;;;;4182496;28;20060;-85
2022/10/03 04:48:55;;;;;;;7.68;1.30;;;11.90;99.90;;;;;;4199845;28;20044;-86
2022/10/03 04:51:34;;;;;;;8.40;1.13;;;11.80;99.90;;;;;;4182949;28;20053;-86
2022/10/03 04:54:14;;;;;;;10.63;1.10;;;11.80;99.90;;;;;;4162363;28;20057;-86
2022/10/03 04:56:46;;;;;;;5.20;0.90;;;11.80;99.90;;;;;;4175494;28;20096;-86
2022/10/03 04:58:55;;;;;;;3.20;1.00;;;11.70;99.90;;;;;;4182832;28;20143;-86
2022/10/03 05:01:14;;;;;;;10.15;2.13;;;11.70;99.90;;;;;;4183451;28;20045;-86
2022/10/03 05:03:42;;;;;;;8.13;1.20;;;11.60;99.90;;;;;;4183111;28;20053;-86
2022/10/03 05:05:51;;;;;;;6.55;1.30;;;11.60;99.90;;;;;;4203462;28;20067;-86
2022/10/03 05:08:06;;;;;;;15.60;1.00;;;11.60;99.90;;;;;;4176079;28;20045;-86
2022/10/03 05:10:25;;;;;;;6.63;1.30;;;11.50;99.90;;;;;;4206338;28;20043;-87
2022/10/03 05:12:28;;;;;;;8.77;1.23;;;11.50;99.90;;;;;;4206106;28;20059;-86
2022/10/03 05:14:37;;;;;;;8.77;1.10;;;11.50;99.90;;;;;;4187393;28;20041;-86
2022/10/03 05:16:42;;;;;;;;;;;11.40;99.90;;;;;;4183956;28;20049;-86
2022/10/03 05:19:00;;;;;;;3.75;0.82;;;11.40;99.90;;;;;;4200525;28;19921;-86
2022/10/03 05:21:40;;;;;;;5.00;1.13;;;11.40;99.90;;;;;;4183520;28;20405;-87
2022/10/03 05:23:44;;;;;;;4.45;0.77;;;11.30;99.90;;;;;;4165467;28;20060;-87
2022/10/03 05:26:16;;;;;;;3.40;0.70;;;11.30;99.90;;;;;;4152761;28;20061;-86
2022/10/03 05:28:53;;;;;;;6.93;0.47;;;11.30;99.90;;;;;;4182702;28;20075;-86
2022/10/03 05:31:12;;;;;;;10.23;1.10;;;11.20;99.90;;;;;;4177823;28;20131;-86
2022/10/03 05:33:19;;;;;;;6.10;0.98;;;11.20;99.90;;;;;;4199818;28;20055;-86
2022/10/03 05:36:04;;;;;;;5.65;1.70;;;11.20;99.90;;;;;;4182860;28;20048;-86
2022/10/03 05:38:23;;;;;;;3.92;1.13;;;11.10;99.90;;;;;;4170700;28;20124;-86
2022/10/03 05:40:26;;;;;;;7.97;1.15;;;11.10;99.90;;;;;;4182033;28;20048;-86
2022/10/03 05:42:43;;;;;;;9.40;0.75;;;11.10;99.90;;;;;;4181973;28;20128;-86
2022/10/03 05:44:55;;;;;;;6.00;0.55;;;11.10;99.90;;;;;;4200978;28;20044;-87
2022/10/03 05:47:43;;;;;;;6.28;0.95;;;11.10;99.90;;;;;;4198461;28;20048;-87
2022/10/03 05:50:02;;;;;;;13.48;1.90;;;11.10;99.90;;;;;;4182027;28;20127;-87
2022/10/03 05:52:41;;;;;;;6.18;1.15;;;11.10;99.90;;;;;;4199964;28;20070;-86
2022/10/03 05:54:49;;;;;;;6.10;1.07;;;11.10;99.90;;;;;;4182610;28;20072;-87
2022/10/03 05:57:20;;;;;;;9.93;1.05;;;11.00;99.90;;;;;;4200468;28;20181;-86
2022/10/03 05:59:42;;;;;;;9.48;1.23;;;11.00;99.90;;;;;;4182601;28;20574;-86
2022/10/03 06:02:16;;;;;;;5.40;1.13;;;11.00;99.90;;;;;;4195591;28;20049;-87
2022/10/03 06:04:57;;;;;;;3.75;0.90;;;11.00;99.90;;;;;;4166454;28;20053;-86
2022/10/03 06:07:20;;;;;;;9.02;1.63;;;11.00;99.90;;;;;;4165015;28;20088;-85
2022/10/03 06:09:40;;;;;;;9.60;0.90;;;11.00;99.90;;;;;;4150228;28;20050;-85
2022/10/03 06:12:09;;;;;;;10.35;1.00;;;11.00;99.90;;;;;;4149779;28;20057;-85
2022/10/03 06:14:23;;;;;;;3.88;0.80;;;11.00;99.90;;;;;;4167318;28;20052;-86
2022/10/03 06:16:29;;;;;;;5.40;1.05;;;11.00;99.90;;;;;;4167131;28;20502;-86
2022/10/03 06:18:46;;;;;;;10.68;1.40;;;11.00;99.90;;;;;;4182445;28;20049;-85
2022/10/03 06:21:02;;;;;;;3.22;0.82;;;11.00;99.90;;;;;;4166045;28;20053;-87
2022/10/03 06:23:22;;;;;;;5.43;0.75;;;11.10;99.90;;;;;;4148604;28;20042;-86
2022/10/03 06:25:53;;;;;;;2.95;0.98;;;11.00;99.90;;;;;;4154744;28;20128;-86
2022/10/03 06:28:17;;;;;;;11.65;1.48;;;11.10;99.90;;;;;;4180820;28;20088;-88
2022/10/03 06:30:43;;;;;;;7.35;1.13;;;11.10;99.90;;;;;;4177325;28;20156;-87
2022/10/03 06:33:21;;;;;;;5.78;1.30;;;11.10;99.90;;;;;;4119229;28;20114;-87
2022/10/03 06:35:51;;;;;;;7.95;0.93;;;11.10;99.90;;;;;;4165793;28;20417;-86
2022/10/03 06:38:10;;;;;;;8.98;1.48;;;11.20;99.90;;;;;;4157929;28;20053;-87
2022/10/03 06:40:30;;;;;;;5.93;1.42;;;11.20;99.90;;;;;;4168612;28;20038;-87
2022/10/03 06:42:52;;;;;;;8.60;1.95;;;10.50;99.90;;;;;;4170410;28;20117;-86
2022/10/03 06:45:12;;;;;;;11.95;1.45;;;11.20;99.90;;;;;;4150355;28;20050;-87
2022/10/03 06:47:46;;;;;;;10.70;0.98;;;11.20;99.90;;;;;;4147820;28;20056;-87
2022/10/03 06:49:56;;;;;;;3.45;0.77;;;11.30;99.90;;;;;;4166281;28;20057;-87
2022/10/03 06:52:07;;;;;;;5.32;0.90;;;11.30;99.90;;;;;;4166444;28;20401;-87
2022/10/03 06:54:41;;;;;;;8.02;1.45;;;11.30;99.90;;;;;;4164628;28;20115;-87
2022/10/03 06:56:54;;;;;;;3.10;0.85;;;11.40;99.90;;;;;;4165806;28;20061;-87
2022/10/03 06:59:08;;;;;;;9.00;1.00;;;11.40;99.90;;;;;;4164979;28;20125;-87
2022/10/03 07:01:11;;;;;;;10.32;1.00;;;11.50;99.90;;;;;;4148298;28;20061;-87
2022/10/03 07:03:23;;;;;;;8.10;0.95;;;11.50;99.90;;;;;;4194531;28;20105;-87
2022/10/03 07:05:59;;;;;;;7.65;0.82;;;11.50;99.90;;;;;;4188164;28;20059;-89
2022/10/03 07:08:29;;;;;;;8.38;0.90;;;11.60;99.90;;;;;;4181185;28;20045;-89
2022/10/03 07:11:03;;;;;;;8.73;1.23;;;11.60;99.90;;;;;;4180346;28;20056;-90
2022/10/03 07:13:17;;;;;;;7.20;1.13;;;11.70;99.90;;;;;;4181569;28;20048;-88
2022/10/03 07:15:39;;;;;;;7.63;1.08;;;11.70;99.90;;;;;;4180769;28;20087;-89
2022/10/03 07:18:11;;;;;;;6.30;1.60;;;11.70;99.90;;;;;;4181731;28;20049;-89
2022/10/03 07:20:42;;;;;;;8.60;0.95;;;11.70;99.90;;;;;;4181765;28;20044;-90
2022/10/03 07:23:28;;;;;;;5.35;0.85;;;11.80;99.90;;;;;;4181436;28;20088;-86
2022/10/03 07:25:40;;;;;;;5.70;1.35;;;11.90;99.90;;;;;;4181216;28;20060;-87
2022/10/03 07:28:21;;;;;;;6.63;0.70;;;12.00;99.90;;;;;;4198782;28;20136;-87
2022/10/03 07:30:23;;;;;;;5.85;0.93;;;12.40;99.90;;;;;;4164173;28;20053;-87
2022/10/03 07:32:32;;;;;;;7.63;0.90;;;12.40;99.90;;;;;;4198072;28;20125;-88
2022/10/03 07:34:33;;;;;;;6.65;1.42;;;12.50;99.90;;;;;;4180085;28;20489;-89
2022/10/03 07:39:59;;;;;;;7.18;1.00;;;12.50;99.90;;;;;;4199668;28;20404;-88
2022/10/03 07:42:12;;;;;;;7.03;1.08;;;12.60;99.90;;;;;;4200136;28;20108;-89
2022/10/03 07:44:34;;;;;;;8.95;0.73;;;13.20;99.90;;;;;;4180989;28;20112;-88
2022/10/03 07:47:05;;;;;;;9.25;1.38;;;14.20;99.90;;;;;;4196987;28;20036;-88
2022/10/03 07:49:18;;;;;;;6.65;0.80;;;15.60;99.90;;;;;;4197788;28;20056;-87
2022/10/03 07:51:25;;;;;;;10.40;0.95;;;16.40;99.90;;;;;;4198209;28;20076;-87
2022/10/03 07:53:42;;;;;;;10.20;0.88;;;17.20;99.90;;;;;;4196751;28;20668;-86
2022/10/03 07:56:01;;;;;;;9.65;1.10;;;17.80;99.20;;;;;;4198385;28;20421;-90
2022/10/03 07:58:25;;;;;;;6.93;1.63;;;18.40;98.40;;;;;;4177599;28;20052;-93
2022/10/03 08:00:43;;;;;;;10.75;1.05;;;18.90;97.90;;;;;;4180300;28;20424;-86
2022/10/03 08:02:56;;;;;;;5.15;0.70;;;19.40;97.50;;;;;;4179886;28;20136;-87
2022/10/03 08:05:06;;;;;;;8.73;1.50;;;19.70;97.10;;;;;;4176818;28;20505;-86
2022/10/03 08:07:33;;;;;;;3.05;0.70;;;20.00;96.70;;;;;;4210226;28;20050;-86
2022/10/03 08:10:02;;;;;;;3.72;0.82;;;20.40;95.30;;;;;;4192401;28;20045;-86
2022/10/03 08:12:30;;;;;;;9.50;1.65;;;20.50;95.70;;;;;;4196664;28;20499;-86
2022/10/03 08:14:46;;;;;;;6.60;1.00;;;21.00;94.80;;;;;;4197124;28;20046;-86
2022/10/03 08:17:08;;;;;;;8.40;0.80;;;21.40;95.00;;;;;;4181084;28;20104;-86
2022/10/03 08:19:18;;;;;;;9.02;1.00;;;21.80;93.80;;;;;;4174753;28;20045;-88
2022/10/03 08:21:38;;;;;;;8.38;1.45;;;22.00;93.70;;;;;;4184690;28;20057;-87
2022/10/03 08:24:01;;;;;;;4.72;0.90;;;22.20;92.70;;;;;;4175862;28;20397;-87
2022/10/03 08:26:27;;;;;;;6.50;0.80;;;22.60;92.30;;;;;;4182577;28;20080;-88
2022/10/03 08:29:11;;;;;;;5.47;1.10;;;22.90;92.90;;;;;;4183031;28;20102;-88
2022/10/03 08:31:40;;;;;;;11.02;1.70;;;23.30;90.50;;;;;;4171076;28;20103;-89
2022/10/03 08:33:55;;;;;;;4.15;0.80;;;23.70;91.60;;;;;;4143971;28;20478;-88
2022/10/03 08:36:02;;;;;;;5.30;1.10;;;23.90;90.70;;;;;;4143031;28;20141;-88
2022/10/03 08:38:11;;;;;;;4.45;1.35;;;24.10;90.50;;;;;;4163087;28;20045;-88
2022/10/03 08:40:33;;;;;;;9.55;1.00;;;24.30;88.60;;;;;;4197084;28;20040;-86
2022/10/03 08:42:56;;;;;;;7.85;0.90;;;24.50;86.90;;;;;;4166465;28;20072;-88
2022/10/03 08:45:30;;;;;;;11.20;1.23;;;24.60;84.30;;;;;;4199088;28;20044;-88
2022/10/03 08:47:48;;;;;;;4.82;0.77;;;24.70;84.50;;;;;;4190924;28;20040;-89
2022/10/03 08:49:55;;;;;;;3.55;0.63;;;25.00;82.80;;;;;;4181892;28;20080;-88
2022/10/03 08:52:23;;;;;;;5.25;1.52;;;25.30;85.00;;;;;;4200591;28;20067;-88
2022/10/03 08:54:52;;;;;;;7.65;0.88;;;25.60;83.20;;;;;;4184728;28;20061;-88
2022/10/03 08:56:53;;;;;;;;;;;25.40;79.20;;;;;;4199470;28;20040;-88
2022/10/03 08:59:20;;;;;;;6.45;0.98;;;25.70;78.50;;;;;;4175705;28;20442;-87
2022/10/03 09:01:23;;;;;;;4.07;0.75;;;25.90;78.20;;;;;;4160616;28;20136;-87
2022/10/03 09:03:52;;;;;;;3.05;0.57;;;26.20;81.50;;;;;;4200621;28;20132;-87
2022/10/03 09:06:01;;;;;;;2.28;0.70;;;26.50;77.60;;;;;;4168139;28;20390;-87
2022/10/03 09:08:23;;;;;;;11.18;1.00;;;26.80;79.00;;;;;;4183560;28;20049;-87
2022/10/03 09:10:45;;;;;;;3.35;0.60;;;26.90;77.30;;;;;;4184311;28;20129;-88
2022/10/03 09:13:04;;;;;;;4.70;1.00;;;26.90;74.50;;;;;;4169792;28;20114;-87
2022/10/03 09:15:26;;;;;;;9.45;1.08;;;27.20;76.80;;;;;;4183701;28;20056;-87
2022/10/03 09:17:27;;;;;;;7.55;1.10;;;27.20;75.30;;;;;;4200810;28;20048;-87
2022/10/03 09:20:02;;;;;;;5.75;0.85;;;27.30;74.60;;;;;;4200903;28;20507;-86
2022/10/03 09:22:12;;;;;;;5.28;1.20;;;27.30;70.10;;;;;;4200789;28;20906;-87
2022/10/03 09:24:30;;;;;;;8.63;0.95;;;27.20;73.00;;;;;;4200120;28;20052;-87
2022/10/03 09:26:57;;;;;;;5.07;1.07;;;27.00;69.40;;;;;;4184545;28;20056;-87
2022/10/03 09:29:36;;;;;;;9.65;0.90;;;26.70;69.10;;;;;;4173234;28;20049;-88
2022/10/03 09:31:44;;;;;;;;;;;26.40;69.80;;;;;;4151866;28;20134;-88
2022/10/03 09:34:05;;;;;;;4.85;1.20;;;26.40;70.90;;;;;;4165711;28;19925;-87
2022/10/03 09:36:25;;;;;;;5.18;1.08;;;26.20;71.60;;;;;;4185337;28;20149;-87
2022/10/03 09:39:05;;;;;;;2.95;0.75;;;26.20;73.30;;;;;;4194427;28;20668;-86
2022/10/03 09:42:04;;;;;;;7.40;0.55;;;26.20;69.90;;;;;;4190429;28;20346;-87
2022/10/03 09:44:07;;;;;;;4.10;1.02;;;26.00;69.00;;;;;;4181394;28;20068;-87
2022/10/03 09:46:21;;;;;;;6.45;0.70;;;25.90;72.80;;;;;;4200939;28;20412;-86
2022/10/03 09:49:14;;;;;;;4.57;0.70;;;26.00;70.00;;;;;;4174587;28;20059;-87
2022/10/03 09:51:28;;;;;;;4.25;0.60;;;26.10;70.00;;;;;;4143125;28;20065;-89
2022/10/03 09:53:38;;;;;;;4.82;1.40;;;25.70;69.30;;;;;;4184223;28;20045;-88
2022/10/03 09:56:04;;;;;;;4.47;0.70;;;25.30;72.50;;;;;;4167953;28;20097;-87
2022/10/03 09:58:42;;;;;;;3.30;0.90;;;24.90;66.80;;;;;;4204944;28;20101;-86
2022/10/03 10:01:21;;;;;;;3.53;0.80;;;24.60;70.30;;;;;;4205078;28;20041;-87
2022/10/03 10:04:16;;;;;;;7.78;0.77;;;24.20;71.90;;;;;;4186598;28;20075;-87
2022/10/03 10:06:33;;;;;;;10.75;1.27;;;24.20;71.70;;;;;;4167023;28;20125;-87
2022/10/03 10:08:40;;;;;;;5.95;1.15;;;24.30;74.30;;;;;;4188095;28;20045;-86
2022/10/03 10:11:15;;;;;;;4.60;0.63;;;24.40;73.80;;;;;;4166426;28;20122;-87
2022/10/03 10:13:41;;;;;;;3.28;0.70;;;24.50;71.80;;;;;;4183068;28;20497;-86
2022/10/03 10:15:50;;;;;;;5.82;0.80;;;24.50;72.50;;;;;;4198238;28;20043;-85
2022/10/03 10:18:27;;;;;;;2.67;0.68;;;24.50;70.90;;;;;;4182581;28;20055;-86
2022/10/03 10:20:40;;;;;;;4.95;0.52;;;24.10;70.10;;;;;;4199367;28;20072;-87
2022/10/03 10:23:07;;;;;;;2.70;0.60;;;24.00;73.40;;;;;;4199680;28;20048;-86
2022/10/03 10:25:23;;;;;;;4.97;0.60;;;24.00;71.30;;;;;;4165179;28;20481;-86
2022/10/03 10:28:01;;;;;;;2.75;0.70;;;24.30;71.70;;;;;;4183445;28;20052;-86
2022/10/03 10:30:23;;;;;;;8.93;0.80;;;24.20;69.60;;;;;;4173534;28;20513;-85
2022/10/03 10:32:48;;;;;;;6.95;0.70;;;23.90;67.80;;;;;;4200258;28;20067;-85
2022/10/03 10:35:17;;;;;;;4.30;0.88;;;23.90;70.30;;;;;;4181921;28;20048;-86
2022/10/03 10:37:40;;;;;;;3.13;0.30;;;23.90;69.70;;;;;;4180673;28;20060;-87
2022/10/03 10:40:38;;;;;;;5.22;0.55;;;24.20;68.90;;;;;;4165371;28;20049;-86
2022/10/03 10:42:56;;;;;;;3.90;0.77;;;23.90;68.30;;;;;;4162588;28;20091;-86
2022/10/03 10:45:38;;;;;;;4.20;0.60;;;24.60;69.60;;;;;;4180779;28;20080;-86
2022/10/03 10:47:57;;;;;;;4.40;0.98;;;24.50;65.50;;;;;;4181078;28;20052;-86
2022/10/03 10:50:27;;;;;;;3.10;0.80;;;24.40;68.00;;;;;;4198444;28;20488;-86
2022/10/03 10:52:49;;;;;;;1.85;0.32;;;24.10;68.10;;;;;;4163913;28;20049;-85
2022/10/03 10:55:12;;;;;;;4.93;0.52;;;24.00;67.80;;;;;;4193486;28;20044;-85
2022/10/03 10:57:51;;;;;;;4.30;0.60;;;24.00;67.20;;;;;;4198033;28;20044;-87
2022/10/03 11:00:16;;;;;;;2.67;0.60;;;24.10;67.80;;;;;;4160187;28;20060;-86
2022/10/03 11:02:32;;;;;;;5.40;0.80;;;24.10;67.40;;;;;;4162726;28;20057;-86
2022/10/03 11:05:06;;;;;;;5.05;0.80;;;24.10;69.20;;;;;;4182088;28;20044;-86
2022/10/03 11:07:39;;;;;;;3.00;0.70;;;24.10;67.70;;;;;;4183226;28;20080;-86
2022/10/03 11:09:49;;;;;;;2.95;0.60;;;24.20;67.00;;;;;;4199007;28;20051;-87
2022/10/03 11:12:12;;;;;;;4.80;0.60;;;24.40;66.70;;;;;;4201061;28;20512;-87
2022/10/03 11:15:03;;;;;;;4.22;0.70;;;24.50;67.10;;;;;;4200478;28;20503;-87
2022/10/03 11:17:38;;;;;;;2.35;0.70;;;24.70;67.20;;;;;;4202572;28;20110;-89
2022/10/03 11:19:58;;;;;;;3.35;0.60;;;24.80;67.00;;;;;;4173124;28;20045;-86
2022/10/03 11:22:32;;;;;;;6.90;0.90;;;24.90;67.10;;;;;;4173422;28;20052;-86
2022/10/03 11:24:36;;;;;;;4.22;0.50;;;25.00;63.00;;;;;;4198142;28;20040;-87
2022/10/03 11:26:58;;;;;;;3.70;0.68;;;24.90;66.00;;;;;;4181596;28;20111;-88
2022/10/03 11:28:58;;;;;;;3.30;0.50;;;24.90;65.10;;;;;;4198853;28;20416;-87
2022/10/03 11:31:17;;;;;;;5.72;0.52;;;24.70;66.00;;;;;;4178242;28;20064;-86
2022/10/03 11:33:18;;;;;;;;;;;24.60;65.10;;;;;;4181035;28;20044;-86
2022/10/03 11:35:44;;;;;;;4.15;0.93;;;24.60;66.60;;;;;;4180599;28;19931;-87
2022/10/03 11:37:57;;;;;;;2.40;0.60;;;24.50;66.10;;;;;;4197645;28;20477;-87
2022/10/03 11:40:06;;;;;;;3.80;0.50;;;24.50;66.10;;;;;;4181009;28;20120;-87
2022/10/03 11:42:41;;;;;;;2.03;0.55;;;24.20;66.70;;;;;;4164421;28;20053;-87
2022/10/03 11:45:02;;;;;;;4.57;1.13;;;24.10;65.80;;;;;;4197396;28;20036;-87
2022/10/03 11:47:07;;;;;;;6.25;0.70;;;24.20;67.30;;;;;;4198495;28;20052;-87
2022/10/03 11:49:26;;;;;;;3.03;0.38;;;24.20;67.10;;;;;;4198400;28;20549;-90
2022/10/03 11:51:44;;;;;;;7.15;0.73;;;24.20;63.50;;;;;;4183909;28;20481;-91
2022/10/03 11:53:57;;;;;;;1.77;0.43;;;24.30;67.40;;;;;;4187539;28;20056;-91
2022/10/03 11:56:14;;;;;;;2.72;0.55;;;24.20;66.50;;;;;;4187442;28;20063;-91
2022/10/03 11:58:27;;;;;;;4.38;0.60;;;24.30;66.20;;;;;;4169486;28;20513;-92
2022/10/03 12:00:34;;;;;;;5.18;0.95;;;24.20;65.60;;;;;;4186266;28;20048;-92
2022/10/03 12:03:18;;;;;;;3.53;0.70;;;24.10;65.10;;;;;;4186761;28;20456;-93
2022/10/03 12:05:27;;;;;;;2.92;0.80;;;24.20;66.00;;;;;;4186177;28;20081;-91
2022/10/03 12:10:39;;;;;;;3.10;0.50;;;24.20;65.00;;;;;;4185884;28;20409;-90
2022/10/03 12:12:54;;;;;;;4.90;1.00;;;24.20;66.00;;;;;;4188157;28;20078;-94
2022/10/03 12:15:14;;;;;;;3.30;0.73;;;24.20;66.20;;;;;;4186976;28;20509;-92
2022/10/03 12:17:40;;;;;;;3.20;0.50;;;24.30;65.60;;;;;;4185393;28;20041;-93
2022/10/03 12:20:13;;;;;;;1.73;0.40;;;24.20;64.50;;;;;;4184939;28;20041;-91
2022/10/03 12:22:40;;;;;;;2.28;0.70;;;24.00;63.70;;;;;;4203081;28;20052;-90
2022/10/03 12:24:47;;;;;;;2.33;0.50;;;24.00;64.40;;;;;;4187292;28;20081;-89
2022/10/03 12:27:16;;;;;;;3.00;0.68;;;23.90;65.60;;;;;;4201379;28;20389;-90